createdAt,value
2018-10-19T00:00:19.568Z,95712.56
2018-10-19T00:02:47.970Z,95708.95
2018-10-19T00:05:16.426Z,95709.09
2018-10-19T00:07:44.951Z,95702.35
2018-10-19T00:10:13.303Z,95709.91
2018-10-19T00:12:41.699Z,95700.26
2018-10-19T00:15:10.117Z,95698.92
2018-10-19T00:17:38.491Z,95691.39
2018-10-19T00:20:07.525Z,95688.42
2018-10-19T00:22:35.939Z,95689.95
2018-10-19T00:25:04.438Z,95684.59
2018-10-19T00:27:32.833Z,95682.23
2018-10-19T00:30:01.233Z,95681.12
2018-10-19T00:32:29.640Z,95678.76
2018-10-19T00:34:58.031Z,95677.42
2018-10-19T00:37:26.457Z,95677.47
2018-10-19T00:39:55.023Z,95675.38
2018-10-19T00:42:23.476Z,95672.53
2018-10-19T00:44:51.888Z,95676.11
2018-10-19T00:47:20.367Z,95677.55
2018-10-19T00:49:48.766Z,95679.80
2018-10-19T00:52:17.163Z,95679.63
2018-10-19T00:54:45.563Z,95677.52
2018-10-19T00:57:13.971Z,95682.55
2018-10-19T00:59:42.335Z,95679.89
2018-10-19T01:02:10.704Z,95680.30
2018-10-19T01:04:39.093Z,95684.27
2018-10-19T01:07:07.495Z,95678.09
2018-10-19T01:09:35.879Z,95671.55
2018-10-19T01:12:04.287Z,95673.88
2018-10-19T01:14:32.619Z,95672.20
2018-10-19T01:17:00.993Z,95672.01
2018-10-19T01:19:29.267Z,95664.44
2018-10-19T01:21:57.587Z,95665.00
2018-10-19T01:24:25.884Z,95669.67
2018-10-19T01:26:54.223Z,95665.23
2018-10-19T01:29:22.603Z,95664.95
2018-10-19T01:31:50.883Z,95674.06
2018-10-19T01:34:19.194Z,95671.77
2018-10-19T01:39:31.815Z,95670.41
2018-10-19T01:42:00.340Z,95673.32
2018-10-19T01:44:28.753Z,95673.99
2018-10-19T01:46:57.137Z,95668.28
2018-10-19T01:49:25.543Z,95670.64
2018-10-19T01:51:54.349Z,95674.88
2018-10-19T01:54:22.752Z,95673.34
2018-10-19T01:56:51.158Z,95673.55
2018-10-19T01:59:19.595Z,95679.57
2018-10-19T02:01:48.032Z,95678.06
2018-10-19T02:04:16.415Z,95670.41
2018-10-19T02:06:44.804Z,95674.89
2018-10-19T02:09:13.417Z,95674.63
2018-10-19T02:11:41.723Z,95683.50
2018-10-19T02:14:10.153Z,95685.36
2018-10-19T02:16:38.515Z,95683.88
2018-10-19T02:19:07.060Z,95686.17
2018-10-19T02:21:35.424Z,95683.95
2018-10-19T02:24:03.812Z,95687.14
2018-10-19T02:26:32.234Z,95682.17
2018-10-19T02:29:00.759Z,95677.76
2018-10-19T02:31:29.123Z,95685.58
2018-10-19T02:33:57.500Z,95680.58
2018-10-19T02:36:25.859Z,95683.72
2018-10-19T02:38:54.301Z,95681.67
2018-10-19T02:41:22.669Z,95681.41
2018-10-19T02:43:51.099Z,95680.14
2018-10-19T02:46:19.528Z,95676.55
2018-10-19T02:48:47.968Z,95674.77
2018-10-19T02:51:16.496Z,95671.77
2018-10-19T02:53:44.991Z,95682.66
2018-10-19T02:56:13.413Z,95678.45
2018-10-19T02:58:41.823Z,95684.48
2018-10-19T03:01:10.448Z,95685.02
2018-10-19T03:03:38.852Z,95683.48
2018-10-19T03:06:07.255Z,95686.83
2018-10-19T03:08:35.676Z,95683.02
2018-10-19T03:11:04.103Z,95693.16
2018-10-19T03:13:33.443Z,95687.22
2018-10-19T03:16:01.788Z,95684.38
2018-10-19T03:18:30.235Z,95682.27
2018-10-19T03:20:58.581Z,95685.38
2018-10-19T03:23:26.976Z,95688.08
2018-10-19T03:25:55.319Z,95682.91
2018-10-19T03:28:23.712Z,95681.45
2018-10-19T03:30:52.226Z,95683.98
2018-10-19T03:33:20.552Z,95684.33
2018-10-19T03:35:49.036Z,95682.75
2018-10-19T03:38:17.691Z,95684.19
2018-10-19T03:40:46.372Z,95676.76
2018-10-19T03:43:14.987Z,95682.58
2018-10-19T03:45:43.673Z,95681.47
2018-10-19T03:48:12.253Z,95683.52
2018-10-19T03:50:40.817Z,95681.38
2018-10-19T03:53:09.405Z,95684.61
2018-10-19T03:55:38.043Z,95682.77
2018-10-19T03:58:07.897Z,95681.44
2018-10-19T04:00:36.494Z,95681.33
2018-10-19T04:03:05.252Z,95689.33
2018-10-19T04:05:33.947Z,95688.31
2018-10-19T04:08:02.718Z,95684.79
2018-10-19T04:10:31.221Z,95686.47
2018-10-19T04:12:59.873Z,95681.16
2018-10-19T04:15:28.580Z,95677.48
2018-10-19T04:17:57.249Z,95690.44
2018-10-19T04:20:26.189Z,95683.27
2018-10-19T04:23:00.181Z,95689.41
2018-10-19T04:25:28.724Z,95682.27
2018-10-19T04:27:57.362Z,95683.08
2018-10-19T04:30:26.047Z,95692.00
2018-10-19T04:32:54.673Z,95692.79
2018-10-19T04:35:23.258Z,95686.10
2018-10-19T04:37:51.945Z,95681.95
2018-10-19T04:40:22.740Z,95682.81
2018-10-19T04:42:51.469Z,95681.44
2018-10-19T04:45:21.167Z,95688.13
2018-10-19T04:47:49.908Z,95687.30
2018-10-19T04:50:18.542Z,95685.23
2018-10-19T04:52:52.727Z,95685.69
2018-10-19T04:55:22.950Z,95691.34
2018-10-19T04:57:52.395Z,95692.83
2018-10-19T05:00:26.565Z,95690.81
2018-10-19T05:02:55.362Z,95697.25
2018-10-19T05:05:30.346Z,95694.47
2018-10-19T05:07:59.752Z,95697.63
2018-10-19T05:10:28.476Z,95698.07
2018-10-19T05:12:57.092Z,95694.19
2018-10-19T05:15:26.667Z,95703.41
2018-10-19T05:17:54.985Z,95702.98
2018-10-19T05:20:23.310Z,95699.19
2018-10-19T05:22:51.606Z,95706.64
2018-10-19T05:25:19.916Z,95704.78
2018-10-19T05:27:48.215Z,95701.14
2018-10-19T05:30:18.525Z,95706.66
2018-10-19T05:32:46.931Z,95708.14
2018-10-19T05:35:15.220Z,95706.03
2018-10-19T05:37:43.609Z,95708.33
2018-10-19T05:40:12.028Z,95712.00
2018-10-19T05:42:40.723Z,95709.42
2018-10-19T05:45:10.226Z,95716.27
2018-10-19T05:47:38.517Z,95711.52
2018-10-19T05:50:07.766Z,95719.11
2018-10-19T05:52:36.582Z,95719.58
2018-10-19T05:55:04.847Z,95717.78
2018-10-19T05:57:33.191Z,95712.63
2018-10-19T06:00:01.607Z,95720.13
2018-10-19T06:02:30.297Z,95714.81
2018-10-19T06:04:58.560Z,95719.19
2018-10-19T06:07:26.999Z,95712.92
2018-10-19T06:09:55.375Z,95708.69
2018-10-19T06:12:24.775Z,95713.88
2018-10-19T06:14:53.215Z,95714.16
2018-10-19T06:17:21.763Z,95713.75
2018-10-19T06:19:50.098Z,95717.83
2018-10-19T06:22:19.548Z,95724.02
2018-10-19T06:24:47.878Z,95728.13
2018-10-19T06:27:16.494Z,95726.42
2018-10-19T06:29:44.877Z,95733.16
2018-10-19T06:32:13.779Z,95726.39
2018-10-19T06:34:42.123Z,95724.43
2018-10-19T06:37:10.675Z,95732.42
2018-10-19T06:39:39.288Z,95735.64
2018-10-19T06:42:07.919Z,95737.81
2018-10-19T06:44:36.261Z,95736.12
2018-10-19T06:47:05.500Z,95738.63
2018-10-19T06:49:34.095Z,95744.46
2018-10-19T06:52:03.731Z,95745.95
2018-10-19T06:54:32.559Z,95751.11
2018-10-19T06:57:01.111Z,95748.56
2018-10-19T06:59:30.191Z,95741.59
2018-10-19T07:01:58.608Z,95744.44
2018-10-19T07:04:27.150Z,95753.22
2018-10-19T07:06:55.655Z,95751.83
2018-10-19T07:09:24.551Z,95749.75
2018-10-19T07:11:52.939Z,95756.95
2018-10-19T07:14:21.603Z,95753.05
2018-10-19T07:16:50.107Z,95760.89
2018-10-19T07:19:18.545Z,95762.08
2018-10-19T07:21:47.383Z,95760.31
2018-10-19T07:24:15.907Z,95760.12
2018-10-19T07:26:44.331Z,95767.47
2018-10-19T07:29:12.979Z,95761.97
2018-10-19T07:31:47.779Z,95768.50
2018-10-19T07:34:16.357Z,95765.34
2018-10-19T07:36:44.769Z,95774.86
2018-10-19T07:39:13.076Z,95779.67
2018-10-19T07:41:41.512Z,95783.05
2018-10-19T07:44:09.908Z,95781.44
2018-10-19T07:46:38.245Z,95779.01
2018-10-19T07:49:06.731Z,95781.83
2018-10-19T07:51:35.223Z,95784.58
2018-10-19T07:54:03.829Z,95788.79
2018-10-19T07:56:32.165Z,95788.23
2018-10-19T07:59:00.737Z,95788.51
2018-10-19T08:01:29.343Z,95775.27
2018-10-19T08:03:57.787Z,95782.63
2018-10-19T08:06:26.859Z,95785.65
2018-10-19T08:08:55.405Z,95793.20
2018-10-19T08:11:23.799Z,95788.27
2018-10-19T08:13:52.237Z,95787.80
2018-10-19T08:16:20.862Z,95783.92
2018-10-19T08:18:49.244Z,95780.69
2018-10-19T08:21:17.876Z,95784.89
2018-10-19T08:23:46.365Z,95785.27
2018-10-19T08:26:15.342Z,95783.72
2018-10-19T08:28:43.623Z,95787.85
2018-10-19T08:31:12.177Z,95792.74
2018-10-19T08:33:40.623Z,95789.94
2018-10-19T08:36:09.266Z,95798.59
2018-10-19T08:38:37.572Z,95801.37
2018-10-19T08:41:06.325Z,95795.83
2018-10-19T08:43:34.654Z,95802.61
2018-10-19T08:46:08.441Z,95792.95
2018-10-19T08:48:37.690Z,95797.94
2018-10-19T08:51:06.048Z,95793.87
2018-10-19T08:53:34.508Z,95800.52
2018-10-19T08:56:03.049Z,95800.53
2018-10-19T08:58:31.432Z,95798.74
2018-10-19T09:01:00.005Z,95792.03
2018-10-19T09:03:28.338Z,95794.73
2018-10-19T09:05:56.798Z,95795.88
2018-10-19T09:08:25.250Z,95803.97
2018-10-19T09:10:54.481Z,95800.02
2018-10-19T09:13:23.217Z,95799.28
2018-10-19T09:15:51.731Z,95806.05
2018-10-19T09:18:21.194Z,95793.86
2018-10-19T09:20:50.098Z,95791.48
2018-10-19T09:23:18.641Z,95794.84
2018-10-19T09:25:47.139Z,95803.17
2018-10-19T09:28:15.520Z,95799.98
2018-10-19T09:30:43.994Z,95805.00
2018-10-19T09:33:12.578Z,95799.73
2018-10-19T09:35:41.220Z,95805.70
2018-10-19T09:38:09.651Z,95807.42
2018-10-19T09:40:38.238Z,95803.00
2018-10-19T09:43:07.187Z,95800.94
2018-10-19T09:45:35.772Z,95801.97
2018-10-19T09:48:04.646Z,95799.88
2018-10-19T09:50:33.439Z,95795.91
2018-10-19T09:53:01.882Z,95794.34
2018-10-19T09:55:30.348Z,95794.91
2018-10-19T09:57:59.108Z,95797.38
2018-10-19T10:00:33.174Z,95790.70
2018-10-19T10:03:01.852Z,95793.32
2018-10-19T10:05:30.251Z,95789.16
2018-10-19T10:07:58.865Z,95792.02
2018-10-19T10:10:27.446Z,95787.56
2018-10-19T10:12:55.983Z,95791.50
2018-10-19T10:15:24.442Z,95788.61
2018-10-19T10:17:53.117Z,95795.95
2018-10-19T10:20:21.580Z,95787.82
2018-10-19T10:22:50.414Z,95791.77
2018-10-19T10:25:18.859Z,95786.52
2018-10-19T10:27:47.535Z,95791.77
2018-10-19T10:30:16.131Z,95789.94
2018-10-19T10:32:44.767Z,95793.33
2018-10-19T10:35:13.307Z,95793.33
2018-10-19T10:37:41.761Z,95782.31
2018-10-19T10:40:11.316Z,95785.16
2018-10-19T10:42:40.051Z,95786.73
2018-10-19T10:45:08.821Z,95780.23
2018-10-19T10:47:38.236Z,95787.30
2018-10-19T10:50:06.931Z,95781.08
2018-10-19T10:52:35.704Z,95781.53
2018-10-19T10:55:06.095Z,95780.39
2018-10-19T10:57:34.520Z,95783.34
2018-10-19T11:00:03.104Z,95777.30
2018-10-19T11:02:32.264Z,95772.75
2018-10-19T11:05:01.011Z,95771.59
2018-10-19T11:07:30.799Z,95764.74
2018-10-19T11:10:00.230Z,95757.75
2018-10-19T11:12:29.211Z,95753.13
2018-10-19T11:14:58.317Z,95753.19
2018-10-19T11:17:26.794Z,95754.68
2018-10-19T11:19:55.602Z,95750.44
2018-10-19T11:22:24.484Z,95751.17
2018-10-19T11:27:33.543Z,95755.45
2018-10-19T11:30:02.108Z,95753.37
2018-10-19T11:32:30.668Z,95758.88
2018-10-19T11:34:59.161Z,95756.00
2018-10-19T11:37:27.609Z,95750.84
2018-10-19T11:40:07.556Z,95752.90
2018-10-19T11:42:35.892Z,95751.83
2018-10-19T11:45:04.568Z,95744.40
2018-10-19T11:47:32.994Z,95743.65
2018-10-19T11:50:01.367Z,95740.38
2018-10-19T11:52:29.736Z,95740.52
2018-10-19T11:54:58.256Z,95739.20
2018-10-19T11:57:26.662Z,95742.72
2018-10-19T11:59:56.120Z,95744.88
2018-10-19T12:02:24.629Z,95739.09
2018-10-19T12:04:53.063Z,95740.69
2018-10-19T12:07:21.551Z,95735.70
2018-10-19T12:09:49.979Z,95738.57
2018-10-19T12:12:18.459Z,95734.13
2018-10-19T12:14:46.852Z,95733.67
2018-10-19T12:17:15.433Z,95729.27
2018-10-19T12:19:44.000Z,95727.91
2018-10-19T12:22:12.402Z,95724.35
2018-10-19T12:24:40.858Z,95723.34
2018-10-19T12:27:09.436Z,95715.56
2018-10-19T12:29:38.567Z,95717.63
2018-10-19T12:32:07.284Z,95719.39
2018-10-19T12:34:35.787Z,95711.54
2018-10-19T12:37:04.346Z,95720.56
2018-10-19T12:39:32.792Z,95716.67
2018-10-19T12:42:01.343Z,95713.55
2018-10-19T12:44:29.850Z,95722.66
2018-10-19T12:47:10.532Z,95721.34
2018-10-19T12:49:39.117Z,95722.89
2018-10-19T12:52:07.687Z,95722.14
2018-10-19T12:54:36.294Z,95717.72
2018-10-19T12:57:06.529Z,95720.56
2018-10-19T12:59:35.093Z,95724.43
2018-10-19T13:02:03.875Z,95725.81
2018-10-19T13:04:32.348Z,95721.43
2018-10-19T13:07:00.769Z,95721.38
2018-10-19T13:09:29.226Z,95713.73
2018-10-19T13:11:57.534Z,95714.48
2018-10-19T13:14:25.967Z,95709.63
2018-10-19T13:16:54.303Z,95711.95
2018-10-19T13:19:22.714Z,95706.08
2018-10-19T13:21:51.107Z,95709.62
2018-10-19T13:24:19.538Z,95705.06
2018-10-19T13:26:47.964Z,95710.21
2018-10-19T13:29:16.542Z,95700.75
2018-10-19T13:31:44.988Z,95697.91
2018-10-19T13:34:13.464Z,95702.74
2018-10-19T13:36:42.967Z,95701.69
2018-10-19T13:39:12.882Z,95701.84
2018-10-19T13:41:41.538Z,95705.52
2018-10-19T13:44:10.183Z,95702.84
2018-10-19T13:46:38.599Z,95694.69
2018-10-19T13:49:07.064Z,95694.80
2018-10-19T13:51:35.668Z,95691.04
2018-10-19T13:54:04.496Z,95690.72
2018-10-19T13:56:33.243Z,95698.20
2018-10-19T13:59:01.665Z,95688.20
2018-10-19T14:01:30.167Z,95697.84
2018-10-19T14:03:58.607Z,95688.03
2018-10-19T14:06:27.310Z,95684.03
2018-10-19T14:08:55.769Z,95685.48
2018-10-19T14:11:24.248Z,95683.41
2018-10-19T14:13:52.615Z,95679.85
2018-10-19T14:16:21.107Z,95678.36
2018-10-19T14:18:49.583Z,95681.89
2018-10-19T14:21:17.944Z,95684.44
2018-10-19T14:23:46.419Z,95681.70
2018-10-19T14:26:14.840Z,95678.47
2018-10-19T14:28:43.220Z,95684.73
2018-10-19T14:31:11.626Z,95679.02
2018-10-19T14:33:40.076Z,95671.28
2018-10-19T14:36:08.645Z,95668.88
2018-10-19T14:38:37.259Z,95667.28
2018-10-19T14:41:05.700Z,95668.05
2018-10-19T14:43:34.035Z,95668.27
2018-10-19T14:46:02.430Z,95669.12
2018-10-19T14:48:30.815Z,95665.50
2018-10-19T14:50:59.188Z,95663.63
2018-10-19T14:53:27.568Z,95658.69
2018-10-19T14:55:55.911Z,95655.95
2018-10-19T14:58:24.260Z,95659.98
2018-10-19T15:00:52.684Z,95655.87
2018-10-19T15:03:21.046Z,95661.64
2018-10-19T15:05:49.425Z,95661.70
2018-10-19T15:08:17.900Z,95656.97
2018-10-19T15:10:46.592Z,95647.70
2018-10-19T15:13:14.571Z,95647.04
2018-10-19T15:15:42.959Z,95651.84
2018-10-19T15:18:11.430Z,95654.72
2018-10-19T15:20:39.713Z,95649.49
2018-10-19T15:23:07.984Z,95655.36
2018-10-19T15:25:36.290Z,95643.56
2018-10-19T15:28:04.629Z,95653.49
2018-10-19T15:30:32.921Z,95653.33
2018-10-19T15:33:01.255Z,95653.75
2018-10-19T15:35:29.512Z,95648.50
2018-10-19T15:37:57.787Z,95661.00
2018-10-19T15:40:37.875Z,95664.46
2018-10-19T15:43:06.250Z,95676.33
2018-10-19T15:45:34.644Z,95665.85
2018-10-19T15:48:03.010Z,95667.63
2018-10-19T15:50:31.424Z,95666.89
2018-10-19T15:52:59.743Z,95660.14
2018-10-19T15:55:28.019Z,95663.20
2018-10-19T15:57:56.420Z,95669.64
2018-10-19T16:00:25.045Z,95671.44
2018-10-19T16:02:53.397Z,95677.25
2018-10-19T16:05:21.873Z,95678.67
2018-10-19T16:07:50.204Z,95679.44
2018-10-19T16:10:18.627Z,95674.59
2018-10-19T16:12:46.992Z,95672.66
2018-10-19T16:15:15.423Z,95675.93
2018-10-19T16:17:43.692Z,95683.46
2018-10-19T16:20:12.024Z,95688.98
2018-10-19T16:22:40.396Z,95686.97
2018-10-19T16:25:08.923Z,95687.78
2018-10-19T16:27:38.346Z,95685.46
2018-10-19T16:30:10.549Z,95694.23
2018-10-19T16:32:39.298Z,95694.21
2018-10-19T16:35:08.200Z,95692.77
2018-10-19T16:37:37.276Z,95696.34
2018-10-19T16:40:05.732Z,95702.27
2018-10-19T16:42:34.092Z,95698.14
2018-10-19T16:45:02.480Z,95701.86
2018-10-19T16:47:30.994Z,95701.89
2018-10-19T16:49:59.332Z,95697.50
2018-10-19T16:52:27.728Z,95699.81
2018-10-19T16:54:55.961Z,95705.14
2018-10-19T16:57:24.223Z,95710.00
2018-10-19T16:59:52.646Z,95714.52
2018-10-19T17:02:20.912Z,95716.82
2018-10-19T17:04:49.467Z,95724.36
2018-10-19T17:07:17.850Z,95726.29
2018-10-19T17:09:46.319Z,95733.17
2018-10-19T17:12:14.694Z,95731.77
2018-10-19T17:14:42.883Z,95733.20
2018-10-19T17:17:11.219Z,95740.46
2018-10-19T17:19:39.508Z,95747.73
2018-10-19T17:22:07.831Z,95744.90
2018-10-19T17:24:36.130Z,95754.59
2018-10-19T17:27:04.467Z,95752.70
2018-10-19T17:29:32.684Z,95760.08
2018-10-19T17:32:00.940Z,95762.42
2018-10-19T17:34:29.210Z,95769.72
2018-10-19T17:36:57.524Z,95770.23
2018-10-19T17:39:25.763Z,95769.73
2018-10-19T17:41:54.038Z,95776.05
2018-10-19T17:44:22.319Z,95770.06
2018-10-19T17:46:50.587Z,95769.80
2018-10-19T17:49:18.865Z,95761.95
2018-10-19T17:51:47.176Z,95765.90
2018-10-19T17:54:15.803Z,95766.91
2018-10-19T17:56:43.944Z,95769.01
2018-10-19T17:59:12.270Z,95776.86
2018-10-19T18:01:40.547Z,95777.64
2018-10-19T18:04:08.915Z,95777.39
2018-10-19T18:06:37.287Z,95778.17
2018-10-19T18:09:08.711Z,95773.72
2018-10-19T18:11:37.029Z,95771.33
2018-10-19T18:14:05.615Z,95776.61
2018-10-19T18:16:33.951Z,95783.13
2018-10-19T18:19:02.283Z,95789.14
2018-10-19T18:21:30.695Z,95794.57
2018-10-19T18:23:58.967Z,95794.84
2018-10-19T18:26:27.257Z,95797.69
2018-10-19T18:28:55.568Z,95797.69
2018-10-19T18:31:23.811Z,95795.93
2018-10-19T18:33:52.097Z,95801.61
2018-10-19T18:36:20.396Z,95806.16
2018-10-19T18:38:48.685Z,95807.34
2018-10-19T18:41:16.986Z,95812.30
2018-10-19T18:43:45.285Z,95804.47
2018-10-19T18:46:13.567Z,95802.61
2018-10-19T18:48:41.835Z,95802.59
2018-10-19T18:51:10.167Z,95805.67
2018-10-19T18:53:38.451Z,95810.78
2018-10-19T18:56:06.778Z,95817.09
2018-10-19T18:58:35.037Z,95816.77
2018-10-19T19:01:03.383Z,95819.87
2018-10-19T19:03:31.698Z,95820.39
2018-10-19T19:06:00.114Z,95822.40
2018-10-19T19:08:28.470Z,95823.73
2018-10-19T19:10:56.855Z,95832.38
2018-10-19T19:13:30.127Z,95830.27
2018-10-19T19:15:59.234Z,95835.14
2018-10-19T19:18:27.576Z,95837.53
2018-10-19T19:20:57.147Z,95833.64
2018-10-19T19:23:25.499Z,95830.59
2018-10-19T19:25:59.200Z,95835.10
2018-10-19T19:28:27.589Z,95832.56
2018-10-19T19:30:55.982Z,95830.28
2018-10-19T19:33:29.543Z,95829.16
2018-10-19T19:35:57.995Z,95831.48
2018-10-19T19:38:26.375Z,95828.84
2018-10-19T19:41:00.153Z,95828.75
2018-10-19T19:43:28.655Z,95838.76
2018-10-19T19:45:57.107Z,95839.67
2018-10-19T19:50:35.709Z,95841.27
2018-10-19T19:53:04.098Z,95841.27
2018-10-19T19:55:32.395Z,95851.23
2018-10-19T19:58:00.828Z,95852.77
2018-10-19T20:00:29.178Z,95854.63
2018-10-19T20:02:57.749Z,95864.39
2018-10-19T20:05:26.116Z,95867.31
2018-10-19T20:07:54.526Z,95859.80
2018-10-19T20:10:22.894Z,95856.71
2018-10-19T20:12:51.287Z,95857.17
2018-10-19T20:15:19.714Z,95852.41
2018-10-19T20:17:48.074Z,95862.80
2018-10-19T20:20:16.590Z,95864.48
2018-10-19T20:22:44.892Z,95858.30
2018-10-19T20:25:13.523Z,95859.49
2018-10-19T20:27:41.967Z,95854.78
2018-10-19T20:30:11.959Z,95859.05
2018-10-19T20:32:40.571Z,95855.80
2018-10-19T20:35:09.430Z,95862.30
2018-10-19T20:37:37.920Z,95861.55
2018-10-19T20:40:06.376Z,95861.34
2018-10-19T20:42:35.034Z,95862.13
2018-10-19T20:45:03.789Z,95865.80
2018-10-19T20:47:32.279Z,95865.69
2018-10-19T20:50:00.881Z,95863.34
2018-10-19T20:52:29.319Z,95869.14
2018-10-19T20:54:57.891Z,95868.09
2018-10-19T20:57:26.335Z,95866.88
2018-10-19T20:59:54.825Z,95856.61
2018-10-19T21:02:23.281Z,95858.88
2018-10-19T21:04:51.699Z,95845.20
2018-10-19T21:07:20.205Z,95848.28
2018-10-19T21:09:48.623Z,95852.24
2018-10-19T21:12:17.041Z,95854.33
2018-10-19T21:14:45.487Z,95849.55
2018-10-19T21:17:14.024Z,95846.27
2018-10-19T21:19:42.383Z,95850.34
2018-10-19T21:22:10.759Z,95847.47
2018-10-19T21:24:39.219Z,95851.91
2018-10-19T21:27:07.655Z,95851.23
2018-10-19T21:29:36.148Z,95840.61
2018-10-19T21:32:04.907Z,95841.09
2018-10-19T21:34:33.214Z,95846.05
2018-10-19T21:37:01.831Z,95847.97
2018-10-19T21:39:30.239Z,95844.72
2018-10-19T21:41:58.626Z,95847.94
2018-10-19T21:44:27.010Z,95841.61
2018-10-19T21:46:55.461Z,95848.09
2018-10-19T21:49:23.851Z,95845.84
2018-10-19T21:51:52.567Z,95846.19
2018-10-19T21:54:21.034Z,95849.69
2018-10-19T21:56:49.515Z,95853.68
2018-10-19T21:59:18.025Z,95861.76
2018-10-19T22:01:46.454Z,95861.70
2018-10-19T22:04:14.931Z,95854.59
2018-10-19T22:06:43.398Z,95871.55
2018-10-19T22:09:13.000Z,95871.69
2018-10-19T22:11:41.878Z,95875.06
2018-10-19T22:14:10.857Z,95875.29
2018-10-19T22:16:40.095Z,95883.96
2018-10-19T22:19:09.379Z,95887.32
2018-10-19T22:21:37.774Z,95885.02
2018-10-19T22:24:06.940Z,95883.52
2018-10-19T22:26:35.323Z,95884.09
2018-10-19T22:29:03.781Z,95890.75
2018-10-19T22:31:32.108Z,95883.76
2018-10-19T22:34:00.667Z,95887.05
2018-10-19T22:36:29.027Z,95887.63
2018-10-19T22:38:57.465Z,95884.45
2018-10-19T22:41:25.868Z,95887.45
2018-10-19T22:43:54.248Z,95886.89
2018-10-19T22:46:22.600Z,95882.11
2018-10-19T22:48:51.086Z,95879.56
2018-10-19T22:51:19.527Z,95876.91
2018-10-19T22:53:47.921Z,95869.31
2018-10-19T22:56:16.485Z,95869.48
2018-10-19T22:58:44.815Z,95866.25
2018-10-19T23:01:13.335Z,95877.53
2018-10-19T23:03:41.687Z,95880.72
2018-10-19T23:06:10.144Z,95881.62
2018-10-19T23:08:38.543Z,95886.38
2018-10-19T23:11:06.966Z,95891.89
2018-10-19T23:13:35.276Z,95889.66
2018-10-19T23:16:03.687Z,95890.89
2018-10-19T23:18:32.101Z,95898.84
2018-10-19T23:21:00.599Z,95904.91
2018-10-19T23:23:28.959Z,95908.11
2018-10-19T23:25:57.357Z,95902.81
2018-10-19T23:28:25.703Z,95906.33
2018-10-19T23:30:54.089Z,95902.27
2018-10-19T23:33:22.407Z,95917.80
2018-10-19T23:35:50.775Z,95924.48
2018-10-19T23:38:19.128Z,95918.48
2018-10-19T23:40:47.500Z,95923.58
2018-10-19T23:43:15.943Z,95923.40
2018-10-19T23:45:44.467Z,95921.44
2018-10-19T23:48:12.940Z,95918.25
2018-10-19T23:50:41.357Z,95922.05
2018-10-19T23:53:09.885Z,95909.99
2018-10-19T23:55:38.252Z,95907.22
2018-10-19T23:58:06.832Z,95908.91
